createdAt,value
2022-12-28T00:00:38.880Z,39.04
2022-12-28T00:01:38.861Z,40.23
2022-12-28T00:02:38.973Z,40.28
2022-12-28T00:03:38.786Z,40.12
2022-12-28T00:04:38.788Z,40.18
2022-12-28T00:05:38.787Z,40.18
2022-12-28T00:06:38.781Z,40.07
2022-12-28T00:07:38.736Z,40.18
2022-12-28T00:08:38.744Z,40.12
2022-12-28T00:09:38.719Z,40.18
2022-12-28T00:11:08.367Z,40.12
2022-12-28T00:11:39.712Z,40.12
2022-12-28T00:12:38.675Z,40.18
2022-12-28T00:13:38.657Z,40.12
2022-12-28T00:14:38.657Z,40.18
2022-12-28T00:15:38.640Z,40.18
2022-12-28T00:16:38.641Z,40.07
2022-12-28T00:17:38.638Z,40.23
2022-12-28T00:18:38.592Z,40.12
2022-12-28T00:19:38.588Z,40.23
2022-12-28T00:20:38.588Z,40.18
2022-12-28T00:21:38.595Z,40.12
2022-12-28T00:22:38.559Z,40.18
2022-12-28T00:23:38.543Z,40.18
2022-12-28T00:24:38.531Z,40.12
2022-12-28T00:25:38.500Z,40.23
2022-12-28T00:26:38.509Z,40.12
2022-12-28T00:27:38.488Z,40.12
2022-12-28T00:28:38.463Z,40.18
2022-12-28T00:29:38.457Z,40.07
2022-12-28T00:30:38.452Z,40.18
2022-12-28T00:31:38.483Z,40.18
2022-12-28T00:32:38.413Z,40.23
2022-12-28T00:33:38.395Z,40.18
2022-12-28T00:34:38.394Z,40.12
2022-12-28T00:35:38.381Z,40.18
2022-12-28T00:37:10.049Z,40.23
2022-12-28T00:37:39.409Z,40.18
2022-12-28T00:38:38.344Z,40.18
2022-12-28T00:39:38.329Z,40.12
2022-12-28T00:40:38.316Z,40.12
2022-12-28T00:41:38.304Z,40.18
2022-12-28T00:42:38.285Z,40.12
2022-12-28T00:43:38.266Z,40.18
2022-12-28T00:44:38.279Z,40.18
2022-12-28T00:45:38.265Z,40.18
2022-12-28T00:46:38.262Z,40.23
2022-12-28T00:47:38.214Z,40.12
2022-12-28T00:48:38.205Z,40.23
2022-12-28T00:49:38.188Z,40.18
2022-12-28T00:50:38.192Z,40.23
2022-12-28T00:51:38.168Z,40.07
2022-12-28T00:52:38.159Z,40.12
2022-12-28T00:53:38.158Z,40.18
2022-12-28T00:54:38.139Z,40.23
2022-12-28T00:55:38.122Z,40.07
2022-12-28T00:56:38.110Z,40.18
2022-12-28T00:57:38.086Z,40.18
2022-12-28T00:58:38.082Z,40.12
2022-12-28T00:59:38.058Z,40.12
2022-12-28T01:00:38.239Z,40.12
2022-12-28T01:01:38.319Z,40.18
2022-12-28T01:02:38.055Z,40.18
2022-12-28T01:03:38.021Z,40.18
2022-12-28T01:04:37.998Z,40.28
2022-12-28T01:05:38.023Z,40.12
2022-12-28T01:06:37.984Z,40.18
2022-12-28T01:07:37.977Z,40.12
2022-12-28T01:08:37.948Z,40.12
2022-12-28T01:09:37.996Z,40.18
2022-12-28T01:10:37.935Z,40.18
2022-12-28T01:11:37.962Z,40.12
2022-12-28T01:12:38.559Z,40.18
2022-12-28T01:13:37.888Z,39.04
2022-12-28T01:14:37.874Z,40.07
2022-12-28T01:15:37.852Z,40.12
2022-12-28T01:16:37.948Z,40.12
2022-12-28T01:17:37.833Z,40.23
2022-12-28T01:18:37.829Z,40.12
2022-12-28T01:19:37.808Z,40.18
2022-12-28T01:20:37.795Z,38.88
2022-12-28T01:21:37.798Z,40.12
2022-12-28T01:22:37.773Z,40.23
2022-12-28T01:23:37.745Z,40.12
2022-12-28T01:24:37.736Z,40.23
2022-12-28T01:25:37.768Z,40.12
2022-12-28T01:26:37.725Z,40.23
2022-12-28T01:27:37.703Z,40.18
2022-12-28T01:28:37.688Z,40.12
2022-12-28T01:29:37.673Z,40.12
2022-12-28T01:30:38.942Z,40.12
2022-12-28T01:31:37.773Z,40.18
2022-12-28T01:32:37.638Z,40.12
2022-12-28T01:33:37.619Z,40.12
2022-12-28T01:34:37.614Z,39.04
2022-12-28T01:35:37.599Z,40.18
2022-12-28T01:36:37.602Z,38.93
2022-12-28T01:37:37.575Z,39.04
2022-12-28T01:38:37.562Z,40.12
2022-12-28T01:39:37.552Z,40.23
2022-12-28T01:40:37.526Z,40.18
2022-12-28T01:41:37.573Z,40.12
2022-12-28T01:42:37.515Z,40.12
2022-12-28T01:43:37.497Z,40.18
2022-12-28T01:44:37.477Z,40.18
2022-12-28T01:45:37.517Z,39.04
2022-12-28T01:46:37.465Z,40.12
2022-12-28T01:47:37.434Z,40.12
2022-12-28T01:48:37.421Z,40.18
2022-12-28T01:49:37.421Z,40.07
2022-12-28T01:50:37.396Z,40.12
2022-12-28T01:51:37.390Z,40.18
2022-12-28T01:52:37.387Z,40.07
2022-12-28T01:53:37.366Z,40.12
2022-12-28T01:54:37.353Z,40.12
2022-12-28T01:55:37.361Z,40.12
2022-12-28T01:56:37.328Z,40.12
2022-12-28T01:57:37.356Z,40.18
2022-12-28T01:58:37.307Z,40.07
2022-12-28T01:59:37.280Z,40.18
2022-12-28T02:00:37.266Z,40.12
2022-12-28T02:01:37.427Z,40.12
2022-12-28T02:02:37.468Z,40.07
2022-12-28T02:03:37.230Z,40.18
2022-12-28T02:04:37.224Z,40.12
2022-12-28T02:05:37.215Z,40.18
2022-12-28T02:06:37.193Z,40.18
2022-12-28T02:07:37.183Z,40.18
2022-12-28T02:08:37.167Z,40.12
2022-12-28T02:09:37.155Z,39.04
2022-12-28T02:10:41.252Z,40.18
2022-12-28T02:11:38.168Z,40.18
2022-12-28T02:12:37.168Z,40.18
2022-12-28T02:13:37.719Z,40.18
2022-12-28T02:14:37.089Z,40.07
2022-12-28T02:15:37.077Z,40.12
2022-12-28T02:16:37.096Z,40.18
2022-12-28T02:17:37.053Z,40.12
2022-12-28T02:18:37.030Z,40.18
2022-12-28T02:19:37.029Z,40.18
2022-12-28T02:20:37.009Z,40.18
2022-12-28T02:21:36.998Z,40.23
2022-12-28T02:22:36.981Z,40.12
2022-12-28T02:23:36.985Z,40.18
2022-12-28T02:24:36.964Z,40.18
2022-12-28T02:25:36.954Z,40.18
2022-12-28T02:26:36.940Z,40.18
2022-12-28T02:27:36.921Z,40.23
2022-12-28T02:28:36.910Z,40.23
2022-12-28T02:29:36.918Z,40.18
2022-12-28T02:30:36.914Z,40.07
2022-12-28T02:31:36.867Z,40.07
2022-12-28T02:32:36.847Z,40.12
2022-12-28T02:33:36.833Z,40.12
2022-12-28T02:34:36.822Z,40.18
2022-12-28T02:35:36.810Z,40.07
2022-12-28T02:36:36.801Z,40.12
2022-12-28T02:37:36.793Z,40.12
2022-12-28T02:38:36.773Z,40.12
2022-12-28T02:39:36.767Z,40.07
2022-12-28T02:40:36.765Z,40.23
2022-12-28T02:41:36.734Z,40.18
2022-12-28T02:42:36.723Z,38.99
2022-12-28T02:43:36.715Z,40.18
2022-12-28T02:44:36.700Z,40.12
2022-12-28T02:45:36.707Z,40.18
2022-12-28T02:46:36.679Z,40.07
2022-12-28T02:47:36.656Z,40.18
2022-12-28T02:48:36.642Z,40.12
2022-12-28T02:49:36.645Z,40.12
2022-12-28T02:50:36.626Z,38.93
2022-12-28T02:51:36.612Z,40.12
2022-12-28T02:52:36.599Z,40.12
2022-12-28T02:53:36.592Z,40.12
2022-12-28T02:54:36.567Z,40.12
2022-12-28T02:55:36.558Z,40.12
2022-12-28T02:56:36.537Z,38.99
2022-12-28T02:57:36.535Z,40.12
2022-12-28T02:58:36.511Z,40.12
2022-12-28T02:59:36.506Z,40.18
2022-12-28T03:00:36.487Z,40.07
2022-12-28T03:01:36.631Z,38.99
2022-12-28T03:02:36.643Z,40.12
2022-12-28T03:03:36.457Z,38.99
2022-12-28T03:04:36.444Z,40.12
2022-12-28T03:05:36.430Z,40.18
2022-12-28T03:06:36.424Z,40.18
2022-12-28T03:07:36.404Z,40.18
2022-12-28T03:08:36.393Z,40.18
2022-12-28T03:09:36.376Z,40.23
2022-12-28T03:10:36.357Z,40.18
2022-12-28T03:11:36.352Z,40.18
2022-12-28T03:12:36.343Z,40.12
2022-12-28T03:13:36.323Z,40.23
2022-12-28T03:14:36.311Z,40.12
2022-12-28T03:15:36.330Z,39.04
2022-12-28T03:16:36.286Z,40.12
2022-12-28T03:17:36.293Z,40.12
2022-12-28T03:18:36.262Z,40.12
2022-12-28T03:19:36.245Z,40.18
2022-12-28T03:20:36.225Z,40.12
2022-12-28T03:21:36.219Z,40.12
2022-12-28T03:22:36.199Z,38.99
2022-12-28T03:23:36.194Z,40.12
2022-12-28T03:24:36.171Z,40.12
2022-12-28T03:25:36.168Z,40.12
2022-12-28T03:26:36.148Z,38.93
2022-12-28T03:27:36.148Z,40.12
2022-12-28T03:28:36.120Z,40.18
2022-12-28T03:29:36.123Z,40.12
2022-12-28T03:30:36.101Z,40.18
2022-12-28T03:31:36.082Z,38.88
2022-12-28T03:32:36.088Z,38.99
2022-12-28T03:33:36.081Z,40.12
2022-12-28T03:34:36.052Z,38.99
2022-12-28T03:35:36.030Z,40.07
2022-12-28T03:36:36.026Z,40.23
2022-12-28T03:37:36.010Z,40.07
2022-12-28T03:38:35.999Z,38.99
2022-12-28T03:39:35.979Z,38.99
2022-12-28T03:40:35.978Z,39.04
2022-12-28T03:41:35.963Z,40.07
2022-12-28T03:42:35.955Z,38.99
2022-12-28T03:43:35.926Z,40.18
2022-12-28T03:44:35.913Z,40.07
2022-12-28T03:45:45.700Z,38.99
2022-12-28T03:46:36.965Z,38.99
2022-12-28T03:47:35.889Z,40.12
2022-12-28T03:48:35.861Z,40.18
2022-12-28T03:49:35.885Z,38.93
2022-12-28T03:50:35.846Z,40.23
2022-12-28T03:51:35.823Z,40.12
2022-12-28T03:52:35.821Z,38.99
2022-12-28T03:53:35.803Z,40.18
2022-12-28T03:54:35.794Z,40.18
2022-12-28T03:55:35.777Z,38.99
2022-12-28T03:56:35.759Z,38.99
2022-12-28T03:57:35.752Z,40.07
2022-12-28T03:58:35.744Z,40.12
2022-12-28T03:59:35.731Z,40.12
2022-12-28T04:00:35.713Z,39.04
2022-12-28T04:01:35.792Z,38.93
2022-12-28T04:02:35.792Z,38.99
2022-12-28T04:03:35.671Z,40.18
2022-12-28T04:04:35.661Z,40.18
2022-12-28T04:05:35.673Z,40.12
2022-12-28T04:06:35.635Z,40.18
2022-12-28T04:07:35.627Z,40.12
2022-12-28T04:08:35.606Z,40.23
2022-12-28T04:09:35.597Z,40.12
2022-12-28T04:10:35.586Z,39.04
2022-12-28T04:11:35.577Z,40.23
2022-12-28T04:12:35.550Z,40.18
2022-12-28T04:13:35.548Z,40.18
2022-12-28T04:14:35.527Z,38.99
2022-12-28T04:15:35.619Z,40.18
2022-12-28T04:16:35.541Z,40.18
2022-12-28T04:17:35.555Z,38.99
2022-12-28T04:18:35.482Z,40.18
2022-12-28T04:19:35.460Z,40.12
2022-12-28T04:20:35.467Z,40.18
2022-12-28T04:21:35.479Z,38.93
2022-12-28T04:22:35.430Z,40.12
2022-12-28T04:23:35.406Z,40.18
2022-12-28T04:24:35.404Z,40.12
2022-12-28T04:25:35.381Z,40.12
2022-12-28T04:26:35.377Z,40.23
2022-12-28T04:27:35.357Z,40.07
2022-12-28T04:28:35.351Z,40.18
2022-12-28T04:29:35.328Z,38.99
2022-12-28T04:30:35.318Z,40.12
2022-12-28T04:31:35.375Z,40.18
2022-12-28T04:32:35.295Z,40.18
2022-12-28T04:33:35.286Z,40.07
2022-12-28T04:34:35.264Z,39.04
2022-12-28T04:35:35.250Z,40.12
2022-12-28T04:36:35.237Z,40.18
2022-12-28T04:37:35.255Z,38.93
2022-12-28T04:38:35.211Z,40.12
2022-12-28T04:39:54.323Z,40.12
2022-12-28T04:40:36.232Z,40.18
2022-12-28T04:41:35.198Z,40.18
2022-12-28T04:42:35.165Z,38.99
2022-12-28T04:43:35.192Z,38.93
2022-12-28T04:44:35.144Z,40.07
2022-12-28T04:45:35.139Z,40.18
2022-12-28T04:46:35.228Z,38.99
2022-12-28T04:47:35.094Z,40.07
2022-12-28T04:48:35.095Z,38.93
2022-12-28T04:49:35.077Z,40.18
2022-12-28T04:50:35.064Z,40.18
2022-12-28T04:51:35.046Z,40.12
2022-12-28T04:52:35.039Z,40.07
2022-12-28T04:53:35.052Z,40.23
2022-12-28T04:54:35.024Z,40.28
2022-12-28T04:55:35.017Z,38.99
2022-12-28T04:56:34.988Z,40.12
2022-12-28T04:57:34.974Z,40.23
2022-12-28T04:58:34.951Z,40.23
2022-12-28T04:59:34.939Z,40.07
2022-12-28T05:00:34.986Z,40.12
2022-12-28T05:01:35.091Z,40.12
2022-12-28T05:02:34.979Z,40.23
2022-12-28T05:03:34.897Z,40.23
2022-12-28T05:04:34.874Z,38.99
2022-12-28T05:05:34.866Z,38.99
2022-12-28T05:06:34.875Z,38.99
2022-12-28T05:07:34.838Z,38.99
2022-12-28T05:08:34.829Z,40.12
2022-12-28T05:09:34.836Z,38.93
2022-12-28T05:10:34.809Z,39.04
2022-12-28T05:11:34.802Z,38.99
2022-12-28T05:12:34.779Z,40.12
2022-12-28T05:13:34.768Z,38.99
2022-12-28T05:14:37.177Z,40.12
2022-12-28T05:15:34.741Z,40.07
2022-12-28T05:16:34.887Z,39.04
2022-12-28T05:17:34.711Z,40.23
2022-12-28T05:18:34.704Z,40.12
2022-12-28T05:19:34.700Z,40.18
2022-12-28T05:20:34.665Z,38.99
2022-12-28T05:21:34.652Z,40.12
2022-12-28T05:22:40.489Z,40.18
2022-12-28T05:23:35.664Z,40.12
2022-12-28T05:24:34.620Z,40.18
2022-12-28T05:25:34.640Z,40.12
2022-12-28T05:26:34.595Z,40.12
2022-12-28T05:27:34.591Z,40.12
2022-12-28T05:28:34.570Z,40.12
2022-12-28T05:29:34.550Z,38.99
2022-12-28T05:30:34.538Z,40.12
2022-12-28T05:31:34.567Z,40.18
2022-12-28T05:32:34.524Z,40.12
2022-12-28T05:33:34.521Z,40.12
2022-12-28T05:34:34.481Z,40.18
2022-12-28T05:35:34.479Z,40.12
2022-12-28T05:36:34.466Z,40.18
2022-12-28T05:37:34.444Z,40.18
2022-12-28T05:38:34.430Z,40.12
2022-12-28T05:39:34.417Z,40.18
2022-12-28T05:40:34.414Z,40.18
2022-12-28T05:41:34.516Z,40.07
2022-12-28T05:42:34.378Z,40.23
2022-12-28T05:43:34.373Z,40.23
2022-12-28T05:44:34.361Z,40.12
2022-12-28T05:45:34.364Z,38.93
2022-12-28T05:46:34.422Z,40.12
2022-12-28T05:47:34.310Z,40.12
2022-12-28T05:48:34.313Z,40.23
2022-12-28T05:49:34.287Z,40.18
2022-12-28T05:50:34.298Z,40.18
2022-12-28T05:51:34.280Z,40.12
2022-12-28T05:52:34.262Z,40.18
2022-12-28T05:53:34.251Z,40.18
2022-12-28T05:54:34.224Z,40.07
2022-12-28T05:55:34.213Z,38.93
2022-12-28T05:56:34.207Z,40.12
2022-12-28T05:57:34.209Z,40.18
2022-12-28T05:58:34.180Z,38.99
2022-12-28T05:59:34.175Z,40.23
2022-12-28T06:00:34.162Z,40.23
2022-12-28T06:01:34.284Z,40.18
2022-12-28T06:02:34.262Z,40.23
2022-12-28T06:03:34.285Z,40.18
2022-12-28T06:04:34.092Z,40.23
2022-12-28T06:05:34.091Z,40.12
2022-12-28T06:06:34.080Z,40.23
2022-12-28T06:07:34.057Z,40.07
2022-12-28T06:08:34.041Z,40.23
2022-12-28T06:09:34.037Z,38.99
2022-12-28T06:10:34.034Z,40.07
2022-12-28T06:11:34.014Z,40.01
2022-12-28T06:12:33.990Z,40.01
2022-12-28T06:13:34.003Z,40.39
2022-12-28T06:14:33.974Z,40.18
2022-12-28T06:15:33.965Z,40.18
2022-12-28T06:16:34.008Z,40.12
2022-12-28T06:17:33.932Z,40.18
2022-12-28T06:18:33.913Z,40.12
2022-12-28T06:19:33.899Z,40.12
2022-12-28T06:20:33.899Z,40.18
2022-12-28T06:21:33.877Z,40.07
2022-12-28T06:22:33.868Z,40.23
2022-12-28T06:23:33.848Z,40.18
2022-12-28T06:24:33.849Z,40.28
2022-12-28T06:25:33.842Z,40.07
2022-12-28T06:26:33.811Z,40.12
2022-12-28T06:27:33.796Z,40.18
2022-12-28T06:28:33.782Z,40.18
2022-12-28T06:29:33.803Z,38.99
2022-12-28T06:30:33.765Z,38.99
2022-12-28T06:31:33.837Z,38.99
2022-12-28T06:32:33.739Z,39.04
2022-12-28T06:33:33.721Z,38.99
2022-12-28T06:34:33.702Z,38.88
2022-12-28T06:35:33.703Z,38.93
2022-12-28T06:36:33.688Z,38.88
2022-12-28T06:37:33.671Z,39.10
2022-12-28T06:38:33.649Z,38.99
2022-12-28T06:39:33.643Z,39.10
2022-12-28T06:41:10.764Z,38.99
2022-12-28T06:41:34.656Z,39.04
2022-12-28T06:42:33.614Z,38.99
2022-12-28T06:43:33.587Z,38.93
2022-12-28T06:44:35.732Z,38.99
2022-12-28T06:45:33.623Z,39.04
2022-12-28T06:46:33.551Z,39.10
2022-12-28T06:47:33.546Z,38.99
2022-12-28T06:48:33.518Z,40.07
2022-12-28T06:49:33.527Z,38.93
2022-12-28T06:50:39.821Z,39.04
2022-12-28T06:51:34.520Z,38.83
2022-12-28T06:52:33.477Z,39.04
2022-12-28T06:53:33.458Z,38.99
2022-12-28T06:54:33.449Z,38.93
2022-12-28T06:55:33.431Z,39.04
2022-12-28T06:56:33.446Z,40.12
2022-12-28T06:57:33.412Z,38.99
2022-12-28T06:58:33.392Z,38.99
2022-12-28T06:59:33.378Z,38.93
2022-12-28T07:00:33.373Z,39.04
2022-12-28T07:01:33.522Z,38.93
2022-12-28T07:02:33.558Z,38.99
2022-12-28T07:03:33.332Z,39.04
2022-12-28T07:04:33.320Z,38.99
2022-12-28T07:05:33.301Z,38.99
2022-12-28T07:06:33.292Z,39.04
2022-12-28T07:07:33.280Z,38.88
2022-12-28T07:08:33.257Z,38.99
2022-12-28T07:09:33.258Z,39.10
2022-12-28T07:10:33.244Z,38.99
2022-12-28T07:11:33.222Z,38.93
2022-12-28T07:12:33.208Z,38.93
2022-12-28T07:13:33.193Z,38.93
2022-12-28T07:14:33.196Z,38.99
2022-12-28T07:15:33.170Z,38.99
2022-12-28T07:17:10.193Z,38.99
2022-12-28T07:18:10.157Z,40.18
2022-12-28T07:19:10.156Z,38.99
2022-12-28T07:20:10.135Z,39.04
2022-12-28T07:21:10.111Z,38.93
2022-12-28T07:22:10.107Z,38.99
2022-12-28T07:23:10.117Z,38.93
2022-12-28T07:24:10.083Z,39.04
2022-12-28T07:25:10.086Z,40.07
2022-12-28T07:26:10.058Z,38.99
2022-12-28T07:27:10.041Z,38.99
2022-12-28T07:28:10.053Z,38.93
2022-12-28T07:29:10.010Z,38.93
2022-12-28T07:30:10.007Z,39.04
2022-12-28T07:31:10.062Z,38.93
2022-12-28T07:32:09.969Z,38.93
2022-12-28T07:33:09.999Z,38.93
2022-12-28T07:34:09.946Z,38.99
2022-12-28T07:35:09.930Z,39.04
2022-12-28T07:36:09.945Z,38.93
2022-12-28T07:37:09.904Z,38.99
2022-12-28T07:38:09.919Z,38.93
2022-12-28T07:39:09.878Z,38.99
2022-12-28T07:40:09.885Z,38.93
2022-12-28T07:41:09.865Z,38.93
2022-12-28T07:42:09.851Z,38.99
2022-12-28T07:43:09.830Z,39.04
2022-12-28T07:44:09.827Z,38.99
2022-12-28T07:45:09.813Z,38.93
2022-12-28T07:46:09.832Z,39.10
2022-12-28T07:47:09.781Z,38.93
2022-12-28T07:48:09.763Z,40.18
2022-12-28T07:49:09.813Z,39.04
2022-12-28T07:50:09.742Z,38.99
2022-12-28T07:51:09.736Z,38.99
2022-12-28T07:52:09.709Z,38.93
2022-12-28T07:53:09.707Z,38.99
2022-12-28T07:54:09.703Z,38.99
2022-12-28T07:55:09.671Z,38.99
2022-12-28T07:56:09.683Z,39.10
2022-12-28T07:57:09.653Z,38.93
2022-12-28T07:58:09.640Z,38.99
2022-12-28T07:59:09.629Z,39.04
2022-12-28T08:00:09.613Z,38.93
2022-12-28T08:01:09.702Z,39.04
2022-12-28T08:02:09.740Z,38.99
2022-12-28T08:03:09.600Z,38.93
2022-12-28T08:04:09.590Z,39.04
2022-12-28T08:05:09.570Z,38.93
2022-12-28T08:06:09.562Z,38.99
2022-12-28T08:07:09.518Z,38.99
2022-12-28T08:08:09.518Z,38.99
2022-12-28T08:09:09.563Z,38.93
2022-12-28T08:10:09.489Z,38.99
2022-12-28T08:11:09.479Z,39.10
2022-12-28T08:12:09.465Z,38.93
2022-12-28T08:13:09.451Z,38.93
2022-12-28T08:14:09.431Z,38.99
2022-12-28T08:15:09.436Z,39.10
2022-12-28T08:16:09.496Z,38.99
2022-12-28T08:17:09.404Z,38.99
2022-12-28T08:18:09.398Z,38.99
2022-12-28T08:19:09.368Z,40.12
2022-12-28T08:20:09.358Z,39.04
2022-12-28T08:21:09.374Z,39.10
2022-12-28T08:22:09.338Z,39.04
2022-12-28T08:23:09.325Z,38.93
2022-12-28T08:24:09.311Z,39.04
2022-12-28T08:25:09.313Z,38.93
2022-12-28T08:26:09.289Z,38.93
2022-12-28T08:27:09.278Z,39.10
2022-12-28T08:28:09.255Z,38.99
2022-12-28T08:29:09.262Z,38.99
2022-12-28T08:30:09.243Z,38.93
2022-12-28T08:31:09.300Z,39.10
2022-12-28T08:32:09.232Z,38.93
2022-12-28T08:33:09.204Z,38.99
2022-12-28T08:34:09.225Z,38.99
2022-12-28T08:35:09.170Z,39.04
2022-12-28T08:36:09.168Z,38.99
2022-12-28T08:37:09.178Z,38.99
2022-12-28T08:38:09.136Z,38.99
2022-12-28T08:39:09.141Z,39.10
2022-12-28T08:40:09.105Z,38.93
2022-12-28T08:41:09.098Z,38.99
2022-12-28T08:42:09.090Z,38.93
2022-12-28T08:43:09.080Z,38.99
2022-12-28T08:44:09.061Z,38.99
2022-12-28T08:45:09.049Z,38.99
2022-12-28T08:46:09.201Z,38.99
2022-12-28T08:47:09.072Z,39.10
2022-12-28T08:48:09.001Z,38.99
2022-12-28T08:49:09.016Z,38.99
2022-12-28T08:50:11.942Z,40.12
2022-12-28T08:51:08.973Z,39.10
2022-12-28T08:52:08.959Z,38.99
2022-12-28T08:53:08.968Z,38.99
2022-12-28T08:54:08.946Z,38.93
2022-12-28T08:55:08.926Z,39.04
2022-12-28T08:56:08.900Z,39.10
2022-12-28T08:57:08.890Z,38.99
2022-12-28T08:58:08.897Z,38.99
2022-12-28T08:59:08.866Z,38.99
2022-12-28T09:00:08.868Z,38.99
2022-12-28T09:01:09.046Z,38.99
2022-12-28T09:02:08.941Z,38.93
2022-12-28T09:03:08.912Z,38.88
2022-12-28T09:04:08.823Z,39.04
2022-12-28T09:05:08.792Z,38.99
2022-12-28T09:06:08.788Z,38.99
2022-12-28T09:07:08.768Z,38.99
2022-12-28T09:08:08.761Z,38.99
2022-12-28T09:09:08.836Z,38.93
2022-12-28T09:10:08.848Z,39.04
2022-12-28T09:11:08.731Z,38.99
2022-12-28T09:12:08.722Z,39.10
2022-12-28T09:13:08.699Z,38.93
2022-12-28T09:14:08.703Z,38.99
2022-12-28T09:15:08.672Z,38.99
2022-12-28T09:16:08.699Z,38.99
2022-12-28T09:17:08.645Z,38.93
2022-12-28T09:18:08.633Z,38.93
2022-12-28T09:19:08.622Z,39.10
2022-12-28T09:20:08.610Z,39.04
2022-12-28T09:21:08.587Z,38.99
2022-12-28T09:22:08.582Z,39.10
2022-12-28T09:23:08.568Z,38.99
2022-12-28T09:24:08.554Z,38.93
2022-12-28T09:25:08.590Z,38.93
2022-12-28T09:26:08.524Z,38.99
2022-12-28T09:27:08.517Z,38.93
2022-12-28T09:28:08.505Z,38.99
2022-12-28T09:29:08.496Z,39.04
2022-12-28T09:30:08.476Z,38.99
2022-12-28T09:31:08.556Z,38.99
2022-12-28T09:32:08.447Z,38.99
2022-12-28T09:33:08.443Z,38.99
2022-12-28T09:34:35.520Z,38.93
2022-12-28T09:35:09.445Z,39.04
2022-12-28T09:36:08.409Z,38.99
2022-12-28T09:37:08.432Z,38.99
2022-12-28T09:38:08.377Z,38.99
2022-12-28T09:39:08.557Z,38.88
2022-12-28T09:40:08.353Z,38.99
2022-12-28T09:41:08.359Z,38.99
2022-12-28T09:42:08.321Z,38.99
2022-12-28T09:43:08.320Z,38.93
2022-12-28T09:44:08.311Z,38.99
2022-12-28T09:45:08.290Z,38.99
2022-12-28T09:46:08.333Z,38.99
2022-12-28T09:47:08.277Z,39.04
2022-12-28T09:48:08.257Z,38.93
2022-12-28T09:49:08.237Z,39.04
2022-12-28T09:50:08.229Z,38.99
2022-12-28T09:51:08.240Z,38.93
2022-12-28T09:52:08.210Z,38.99
2022-12-28T09:53:08.186Z,38.93
2022-12-28T09:54:08.177Z,38.99
2022-12-28T09:55:08.179Z,39.04
2022-12-28T09:56:08.159Z,38.93
2022-12-28T09:57:08.175Z,38.93
2022-12-28T09:58:08.143Z,38.93
2022-12-28T09:59:08.122Z,38.99
2022-12-28T10:00:08.115Z,38.99
2022-12-28T10:01:08.183Z,38.99
2022-12-28T10:02:08.188Z,38.99
2022-12-28T10:03:08.177Z,38.99
2022-12-28T10:04:08.064Z,38.93
2022-12-28T10:05:08.052Z,38.99
2022-12-28T10:06:08.060Z,39.10
2022-12-28T10:07:08.019Z,38.99
2022-12-28T10:08:08.005Z,38.99
2022-12-28T10:09:07.997Z,39.04
2022-12-28T10:10:07.987Z,38.99
2022-12-28T10:11:07.972Z,38.99
2022-12-28T10:12:07.972Z,38.99
2022-12-28T10:13:21.566Z,39.10
2022-12-28T10:14:08.962Z,39.04
2022-12-28T10:15:07.918Z,38.99
2022-12-28T10:16:07.938Z,39.04
2022-12-28T10:17:07.909Z,39.04
2022-12-28T10:18:07.885Z,39.04
2022-12-28T10:19:07.869Z,39.04
2022-12-28T10:20:07.868Z,38.99
2022-12-28T10:21:07.861Z,39.04
2022-12-28T10:22:07.830Z,38.99
2022-12-28T10:23:07.823Z,39.04
2022-12-28T10:25:07.813Z,38.99
2022-12-28T10:26:07.787Z,39.04
2022-12-28T10:27:07.806Z,38.99
2022-12-28T10:28:07.777Z,39.04
2022-12-28T10:29:07.790Z,38.93
2022-12-28T10:30:07.753Z,38.93
2022-12-28T10:31:07.784Z,38.93
2022-12-28T10:32:07.719Z,39.04
2022-12-28T10:33:09.749Z,38.99
2022-12-28T10:34:08.725Z,38.99
2022-12-28T10:35:07.671Z,38.99
2022-12-28T10:36:07.679Z,39.04
2022-12-28T10:37:14.510Z,38.88
2022-12-28T10:38:08.676Z,38.99
2022-12-28T10:39:07.639Z,38.99
2022-12-28T10:40:07.618Z,38.88
2022-12-28T10:41:07.607Z,38.93
2022-12-28T10:42:07.601Z,38.99
2022-12-28T10:43:11.078Z,38.99
2022-12-28T10:44:37.776Z,38.99
2022-12-28T10:45:08.627Z,39.10
2022-12-28T10:46:07.548Z,38.93
2022-12-28T10:47:07.571Z,39.04
2022-12-28T10:48:07.535Z,38.99
2022-12-28T10:49:12.331Z,38.93
2022-12-28T10:50:37.843Z,38.99
2022-12-28T10:51:08.515Z,39.04
2022-12-28T10:52:07.476Z,39.04
2022-12-28T10:53:07.471Z,38.93
2022-12-28T10:54:07.442Z,39.04
2022-12-28T10:55:08.755Z,38.99
2022-12-28T10:56:07.427Z,38.99
2022-12-28T10:57:07.394Z,38.93
2022-12-28T10:59:07.378Z,39.04
2022-12-28T11:00:07.373Z,38.99
2022-12-28T11:01:07.764Z,39.04
2022-12-28T11:02:07.478Z,38.99
2022-12-28T11:03:07.355Z,38.99
2022-12-28T11:04:07.322Z,38.99
2022-12-28T11:05:07.298Z,39.10
2022-12-28T11:06:07.288Z,39.04
2022-12-28T11:07:07.270Z,39.04
2022-12-28T11:08:07.277Z,38.99
2022-12-28T11:09:07.260Z,39.04
2022-12-28T11:10:07.243Z,39.10
2022-12-28T11:11:07.225Z,38.99
2022-12-28T11:12:07.215Z,38.93
2022-12-28T11:13:07.201Z,39.10
2022-12-28T11:14:07.186Z,38.99
2022-12-28T11:15:07.179Z,38.93
2022-12-28T11:16:07.200Z,39.04
2022-12-28T11:17:07.172Z,38.93
2022-12-28T11:18:07.131Z,38.99
2022-12-28T11:19:07.122Z,39.04
2022-12-28T11:20:07.112Z,40.12
2022-12-28T11:21:07.104Z,40.18
2022-12-28T11:22:07.089Z,40.12
2022-12-28T11:23:07.107Z,40.18
2022-12-28T11:24:07.076Z,38.99
2022-12-28T11:25:07.064Z,40.12
2022-12-28T11:26:07.056Z,40.07
2022-12-28T11:27:07.018Z,40.18
2022-12-28T11:28:07.023Z,40.18
2022-12-28T11:29:07.000Z,40.18
2022-12-28T11:30:09.074Z,40.18
2022-12-28T11:31:07.023Z,38.99
2022-12-28T11:32:06.981Z,40.12
2022-12-28T11:33:06.988Z,40.34
2022-12-28T11:34:06.955Z,39.04
2022-12-28T11:35:06.950Z,40.12
2022-12-28T11:36:10.035Z,40.18
2022-12-28T11:37:06.897Z,40.07
2022-12-28T11:38:06.924Z,40.01
2022-12-28T11:39:06.865Z,38.93
2022-12-28T11:40:06.861Z,38.99
2022-12-28T11:41:06.847Z,39.58
2022-12-28T11:43:06.828Z,38.93
2022-12-28T11:44:06.811Z,39.80
2022-12-28T11:45:06.791Z,40.18
2022-12-28T11:46:06.838Z,38.99
2022-12-28T11:47:06.776Z,40.23
2022-12-28T11:48:06.757Z,38.93
2022-12-28T11:49:06.766Z,40.18
2022-12-28T11:50:06.739Z,40.18
2022-12-28T11:51:06.734Z,40.12
2022-12-28T11:52:06.706Z,40.18
2022-12-28T11:53:12.204Z,38.93
2022-12-28T11:54:07.711Z,38.99
2022-12-28T11:55:06.668Z,39.04
2022-12-28T11:56:06.675Z,40.28
2022-12-28T11:57:06.657Z,40.23
2022-12-28T11:58:06.643Z,38.99
2022-12-28T11:59:06.635Z,38.93
2022-12-28T12:00:06.615Z,40.07
2022-12-28T12:01:06.606Z,40.18
2022-12-28T12:02:06.693Z,40.12
2022-12-28T12:03:06.651Z,38.93
2022-12-28T12:04:06.590Z,39.04
2022-12-28T12:05:06.588Z,38.88
2022-12-28T12:06:06.535Z,38.93
2022-12-28T12:07:06.524Z,39.04
2022-12-28T12:08:06.519Z,38.99
2022-12-28T12:09:06.496Z,38.99
2022-12-28T12:10:06.491Z,39.04
2022-12-28T12:11:06.481Z,40.23
2022-12-28T12:12:06.470Z,40.12
2022-12-28T12:13:06.462Z,40.12
2022-12-28T12:14:06.442Z,38.99
2022-12-28T12:15:06.428Z,38.93
2022-12-28T12:16:06.423Z,40.12
2022-12-28T12:17:06.516Z,38.93
2022-12-28T12:18:06.391Z,38.99
2022-12-28T12:19:06.388Z,39.04
2022-12-28T12:20:06.362Z,40.12
2022-12-28T12:21:11.620Z,40.12
2022-12-28T12:22:07.360Z,38.99
2022-12-28T12:23:06.342Z,38.99
2022-12-28T12:24:06.320Z,40.12
2022-12-28T12:25:06.296Z,40.12
2022-12-28T12:26:06.287Z,40.12
2022-12-28T12:27:12.000Z,39.10
2022-12-28T12:28:07.308Z,38.99
2022-12-28T12:29:06.252Z,40.18
2022-12-28T12:30:06.260Z,38.93
2022-12-28T12:31:06.281Z,38.93
2022-12-28T12:32:06.237Z,38.93
2022-12-28T12:33:06.215Z,40.18
2022-12-28T12:34:06.213Z,40.18
2022-12-28T12:35:06.174Z,38.93
2022-12-28T12:36:06.164Z,40.12
2022-12-28T12:37:06.200Z,39.10
2022-12-28T12:38:06.135Z,40.23
2022-12-28T12:39:06.125Z,38.88
2022-12-28T12:40:06.110Z,38.99
2022-12-28T12:41:06.108Z,40.18
2022-12-28T12:42:06.087Z,40.12
2022-12-28T12:43:06.085Z,40.18
2022-12-28T12:44:06.060Z,38.93
2022-12-28T12:45:06.048Z,38.99
2022-12-28T12:46:06.125Z,40.12
2022-12-28T12:47:06.321Z,38.99
2022-12-28T12:48:06.022Z,39.04
2022-12-28T12:49:06.006Z,38.99
2022-12-28T12:50:05.994Z,40.23
2022-12-28T12:51:05.980Z,40.18
2022-12-28T12:52:05.980Z,40.07
2022-12-28T12:53:06.010Z,40.07
2022-12-28T12:54:05.947Z,40.18
2022-12-28T12:55:05.928Z,40.18
2022-12-28T12:56:05.922Z,39.04